DEMBA DRZD-FTTJ

Flight info

Callsign DEMBA
Flight time 4h 2m
Altitude 6000
Route DIR
Aircraft C172/L-VGD/C

Departure

Time 2022-05-08 10:14
Airport Dirkou Airport (DRZD)

Arrival

Time 2022-05-08 14:17
Airport N'Djamena International Airport (FTTJ)
Time Latitude Longitude Altitude Speed Heading
2022-05-08 10:03z 18.96842 12.86989 1263 0 99
2022-05-08 10:08z 18.96832 12.86969 1263 6 290
2022-05-08 10:09z 18.96862 12.86927 1262 0 304
2022-05-08 10:09z 18.96872 12.8691 1262 6 297
2022-05-08 10:10z 18.96718 12.8671 1267 23 224
2022-05-08 10:10z 18.96479 12.86477 1271 21 224
2022-05-08 10:11z 18.96349 12.86384 1269 7 35
2022-05-08 10:12z 18.96858 12.86854 1315 69 42
2022-05-08 10:12z 18.97495 12.87526 1583 69 43
2022-05-08 10:13z 18.9772 12.88423 1829 82 107
2022-05-08 10:13z 18.96519 12.88765 1921 116 176
2022-05-08 10:14z 18.94886 12.88786 2099 114 162
2022-05-08 10:14z 18.94109 12.88979 2169 114 160
2022-05-08 10:15z 18.91661 12.89423 2242 126 165
2022-05-08 10:15z 18.90826 12.89618 2310 123 161
2022-05-08 10:16z 18.88384 12.90409 2418 119 154
2022-05-08 10:16z 18.86784 12.90826 2525 117 159
2022-05-08 10:17z 18.85486 12.91123 2629 113 157
2022-05-08 10:17z 18.83723 12.91572 2807 112 159
2022-05-08 10:18z 18.82193 12.9193 2966 113 158
2022-05-08 10:18z 18.80914 12.92245 3078 113 159
2022-05-08 10:18z 18.80152 12.92428 3138 111 160
2022-05-08 10:19z 18.77893 12.92981 3229 111 160
2022-05-08 10:20z 18.76386 12.93344 3323 110 158
2022-05-08 10:20z 18.74914 12.93713 3430 108 156
2022-05-08 10:21z 18.73421 12.94074 3544 110 160
2022-05-08 10:21z 18.71944 12.94419 3680 109 158
2022-05-08 10:21z 18.71191 12.94617 3807 113 158
2022-05-08 10:22z 18.68851 12.95164 4090 117 159
2022-05-08 10:23z 18.67275 12.95564 4204 116 159
2022-05-08 10:23z 18.66491 12.95753 4273 115 160
2022-05-08 10:24z 18.64187 12.9631 4484 112 159
2022-05-08 10:24z 18.62682 12.96677 4630 110 160
2022-05-08 10:24z 18.61937 12.96856 4703 110 160
2022-05-08 10:25z 18.58919 12.97589 4851 116 161
2022-05-08 10:26z 18.57334 12.97974 4855 118 161
2022-05-08 10:26z 18.5573 12.98361 4861 120 161
2022-05-08 10:27z 18.53268 12.98959 4861 121 162
2022-05-08 10:28z 18.51622 12.99359 4858 121 162
2022-05-08 10:28z 18.49983 12.99756 4858 120 162
2022-05-08 10:29z 18.48366 13.00146 4858 118 162
2022-05-08 10:29z 18.46789 13.0053 4859 115 162
2022-05-08 10:29z 18.46021 13.00715 4859 114 162
2022-05-08 10:30z 18.44483 13.01089 4861 113 162
2022-05-08 10:30z 18.42956 13.01456 4855 112 162
2022-05-08 10:31z 18.40662 13.02012 4857 113 162
2022-05-08 10:32z 18.39133 13.02385 4853 112 162
2022-05-08 10:32z 18.37622 13.02749 4854 112 162
2022-05-08 10:33z 18.36098 13.03118 4854 112 162
2022-05-08 10:33z 18.34576 13.03487 4872 114 162
2022-05-08 10:33z 18.33798 13.03678 4872 116 163
2022-05-08 10:34z 18.32221 13.04054 4844 115 163
2022-05-08 10:34z 18.30686 13.04427 4844 112 163
2022-05-08 10:35z 18.2842 13.04975 4851 110 163
2022-05-08 10:36z 18.2692 13.05338 4857 111 163
2022-05-08 10:36z 18.25422 13.05699 4855 111 163
2022-05-08 10:36z 18.24668 13.05883 4856 111 163
2022-05-08 10:37z 18.23143 13.06249 4853 112 163
2022-05-08 10:38z 18.20862 13.06802 4848 111 163
2022-05-08 10:38z 18.20118 13.06982 4846 110 164
2022-05-08 10:38z 18.18636 13.07339 4853 109 163
2022-05-08 10:39z 18.17164 13.07695 4854 109 163
2022-05-08 10:40z 18.1348 13.08582 4855 108 163
2022-05-08 10:41z 18.12014 13.08941 4849 108 164
2022-05-08 10:41z 18.11285 13.09114 4850 107 164
2022-05-08 10:41z 18.09834 13.09462 4848 106 163
2022-05-08 10:42z 18.08398 13.0981 4850 106 164
2022-05-08 10:42z 18.07667 13.09985 4849 107 164
2022-05-08 10:43z 18.05514 13.10507 4846 106 165
2022-05-08 10:44z 18.03363 13.11024 4849 106 164
2022-05-08 10:44z 18.01928 13.11372 4845 106 165
2022-05-08 10:44z 18.01213 13.11544 4846 105 165
2022-05-08 10:45z 17.99073 13.12056 4846 105 164
2022-05-08 10:45z 17.98366 13.12228 4847 105 165
2022-05-08 10:46z 17.96932 13.12575 4843 105 165
2022-05-08 10:46z 17.95508 13.12916 4843 105 165
2022-05-08 10:47z 17.94085 13.13261 4847 105 165
2022-05-08 10:47z 17.9265 13.13606 4845 106 165
2022-05-08 10:48z 17.90504 13.14121 4845 106 165
2022-05-08 10:49z 17.89073 13.14467 4848 105 164
2022-05-08 10:49z 17.87639 13.14811 4845 106 164
2022-05-08 10:49z 17.86925 13.14984 4845 106 165
2022-05-08 10:50z 17.85489 13.15328 4842 106 165
2022-05-08 10:50z 17.84057 13.15675 4838 105 165
2022-05-08 10:51z 17.82643 13.16013 4841 105 165
2022-05-08 10:52z 17.80496 13.16528 4841 105 165
2022-05-08 10:52z 17.79072 13.16873 4837 105 165
2022-05-08 10:52z 17.78357 13.17045 4839 105 165
2022-05-08 10:53z 17.77643 13.17217 4840 105 165
2022-05-08 10:53z 17.75512 13.17728 4841 105 165
2022-05-08 10:54z 17.74104 13.18068 4838 104 165
2022-05-08 10:54z 17.72689 13.18406 4839 104 165
2022-05-08 10:55z 17.71271 13.18748 4837 105 165
2022-05-08 10:56z 17.69142 13.19258 4839 105 165
2022-05-08 10:56z 17.67722 13.196 4838 104 165
2022-05-08 10:57z 17.66305 13.1994 4840 105 165
2022-05-08 10:57z 17.64888 13.20279 4838 104 165
2022-05-08 10:58z 17.63477 13.20619 4835 103 165
2022-05-08 10:58z 17.62085 13.20954 4834 103 165
2022-05-08 10:58z 17.61384 13.21121 4836 103 165
2022-05-08 10:59z 17.59985 13.21457 4836 103 165
2022-05-08 11:00z 17.57888 13.21961 4835 103 165
2022-05-08 11:00z 17.56489 13.22294 4834 103 165
2022-05-08 11:01z 17.55099 13.22628 4822 103 163
2022-05-08 11:01z 17.53681 13.2297 4806 105 163
2022-05-08 11:01z 17.52971 13.23147 4824 104 164
2022-05-08 11:02z 17.5156 13.23474 4835 104 165
2022-05-08 11:02z 17.50153 13.23814 4834 104 164
2022-05-08 11:03z 17.48752 13.24151 4831 103 165
2022-05-08 11:04z 17.46659 13.24653 4831 103 165
2022-05-08 11:04z 17.45962 13.2482 4828 103 165
2022-05-08 11:04z 17.44802 13.25096 4830 103 164
2022-05-08 11:05z 17.43405 13.25433 4828 103 164
2022-05-08 11:05z 17.4201 13.25766 4827 103 164
2022-05-08 11:06z 17.40602 13.26102 4828 104 164
2022-05-08 11:06z 17.39204 13.26427 4821 102 166
2022-05-08 11:07z 17.37254 13.2711 4827 99 131
2022-05-08 11:08z 17.36348 13.28178 4824 99 132
2022-05-08 11:08z 17.35886 13.2873 4824 100 132
2022-05-08 11:09z 17.34513 13.30369 4824 100 132
2022-05-08 11:09z 17.34053 13.30917 4825 100 132
2022-05-08 11:09z 17.33593 13.31463 4823 100 132
2022-05-08 11:10z 17.32212 13.33102 4824 100 132
2022-05-08 11:10z 17.31293 13.34188 4825 100 132
2022-05-08 11:11z 17.30371 13.35272 4826 100 133
2022-05-08 11:12z 17.28988 13.36895 4822 99 132
2022-05-08 11:12z 17.28528 13.37432 4821 99 133
2022-05-08 11:12z 17.27612 13.38498 4819 99 133
2022-05-08 11:13z 17.2669 13.39568 4818 99 132
2022-05-08 11:13z 17.25768 13.40639 4822 99 133
2022-05-08 11:14z 17.24837 13.41712 4821 100 133
2022-05-08 11:14z 17.23908 13.42781 4824 99 133
2022-05-08 11:15z 17.22525 13.44371 4819 98 133
2022-05-08 11:16z 17.21607 13.45422 4818 98 133
2022-05-08 11:16z 17.21148 13.45946 4809 97 133
2022-05-08 11:16z 17.20235 13.46983 4818 97 133
2022-05-08 11:17z 17.19318 13.48028 4818 98 133
2022-05-08 11:18z 17.17838 13.4948 4816 97 148
2022-05-08 11:18z 17.17242 13.49797 4814 97 152
2022-05-08 11:18z 17.15971 13.50288 4816 98 160
2022-05-08 11:19z 17.14032 13.50891 4814 97 159
2022-05-08 11:20z 17.12739 13.5132 4818 98 159
2022-05-08 11:20z 17.12085 13.5153 4818 99 159
2022-05-08 11:21z 17.10122 13.52164 4818 99 159
2022-05-08 11:21z 17.09467 13.52379 4814 99 159
2022-05-08 11:21z 17.08154 13.52804 4814 99 159
2022-05-08 11:22z 17.06839 13.53229 4812 99 159
2022-05-08 11:22z 17.05524 13.53657 4815 100 159
2022-05-08 11:23z 17.04195 13.54087 4810 100 159
2022-05-08 11:24z 17.02229 13.54726 4810 99 158
2022-05-08 11:25z 16.99595 13.55579 4809 99 158
2022-05-08 11:25z 16.98936 13.55794 4812 99 159
2022-05-08 11:25z 16.97611 13.5622 4808 99 159
2022-05-08 11:26z 16.96297 13.56644 4806 99 159
2022-05-08 11:26z 16.94976 13.57075 4804 100 159
2022-05-08 11:27z 16.92992 13.57717 4808 100 159
2022-05-08 11:28z 16.91664 13.58146 4805 100 159
2022-05-08 11:28z 16.90333 13.58575 4805 100 158
2022-05-08 11:28z 16.89677 13.58789 4803 100 158
2022-05-08 11:29z 16.88341 13.59221 4801 99 158
2022-05-08 11:29z 16.8703 13.59645 4801 99 158
2022-05-08 11:30z 16.85708 13.60074 4804 100 158
2022-05-08 11:30z 16.84374 13.60504 4799 100 159
2022-05-08 11:31z 16.82391 13.61145 4794 100 158
2022-05-08 11:32z 16.81081 13.6157 4798 100 158
2022-05-08 11:32z 16.80418 13.61784 4798 100 158
2022-05-08 11:32z 16.79083 13.62216 4799 101 158
2022-05-08 11:33z 16.77742 13.62648 4794 101 158
2022-05-08 11:33z 16.76397 13.63084 4793 101 158
2022-05-08 11:34z 16.75044 13.63521 4794 102 159
2022-05-08 11:34z 16.74366 13.63739 4788 101 158
2022-05-08 11:35z 16.71673 13.64608 4791 102 158
2022-05-08 11:36z 16.70317 13.65048 4790 102 158
2022-05-08 11:36z 16.69643 13.65265 4790 101 158
2022-05-08 11:36z 16.68303 13.65698 4790 102 158
2022-05-08 11:37z 16.6695 13.66135 4790 102 159
2022-05-08 11:37z 16.65596 13.66571 4788 102 159
2022-05-08 11:38z 16.64241 13.67009 4786 102 158
2022-05-08 11:39z 16.62207 13.67665 4785 102 159
2022-05-08 11:39z 16.60859 13.681 4783 102 159
2022-05-08 11:40z 16.58147 13.68975 4781 102 158
2022-05-08 11:41z 16.56786 13.69414 4781 102 159
2022-05-08 11:41z 16.56106 13.69631 4780 102 159
2022-05-08 11:41z 16.54744 13.70071 4782 103 158
2022-05-08 11:42z 16.53378 13.70514 4798 104 159
2022-05-08 11:43z 16.51304 13.7118 4787 103 159
2022-05-08 11:43z 16.49916 13.71628 4788 107 159
2022-05-08 11:44z 16.48505 13.72083 4765 104 159
2022-05-08 11:44z 16.47137 13.72522 4768 102 158
2022-05-08 11:45z 16.45792 13.72957 4777 101 158
2022-05-08 11:45z 16.44449 13.73389 4779 101 158
2022-05-08 11:45z 16.43778 13.73604 4779 101 158
2022-05-08 11:46z 16.42436 13.74038 4776 101 159
2022-05-08 11:46z 16.41095 13.74468 4775 101 159
2022-05-08 11:47z 16.3908 13.75118 4772 101 159
2022-05-08 11:48z 16.3774 13.75547 4770 101 159
2022-05-08 11:48z 16.3639 13.75983 4765 101 159
2022-05-08 11:49z 16.35043 13.76416 4769 101 159
2022-05-08 11:49z 16.33694 13.7685 4775 102 159
2022-05-08 11:49z 16.33013 13.77069 4772 102 160
2022-05-08 11:50z 16.31649 13.77507 4771 103 159
2022-05-08 11:51z 16.29593 13.78168 4768 103 159
2022-05-08 11:51z 16.28226 13.78607 4763 103 159
2022-05-08 11:52z 16.27075 13.78979 4769 104 159
2022-05-08 11:52z 16.25703 13.79417 4765 104 159
2022-05-08 11:53z 16.24323 13.79865 4764 103 159
2022-05-08 11:53z 16.23633 13.80083 4766 104 159
2022-05-08 11:53z 16.22257 13.80527 4769 104 159
2022-05-08 11:54z 16.21566 13.80748 4765 104 160
2022-05-08 11:54z 16.19493 13.81413 4766 104 160
2022-05-08 11:55z 16.17428 13.82077 4767 104 160
2022-05-08 11:55z 16.16739 13.82299 4755 104 160
2022-05-08 11:56z 16.15354 13.82742 4761 104 160
2022-05-08 11:56z 16.13963 13.83189 4756 105 160
2022-05-08 11:57z 16.11868 13.83863 4754 105 160
2022-05-08 11:57z 16.1117 13.84085 4754 105 160
2022-05-08 11:58z 16.09792 13.84527 4758 104 160
2022-05-08 11:58z 16.09096 13.84751 4758 105 160
2022-05-08 11:59z 16.06308 13.85646 4757 105 160
2022-05-08 12:00z 16.04913 13.86092 4757 105 160
2022-05-08 12:00z 16.03519 13.8654 4754 105 160
2022-05-08 12:00z 16.02827 13.86762 4756 105 160
2022-05-08 12:01z 16.01421 13.87214 4740 106 160
2022-05-08 12:01z 16.00003 13.87663 4740 105 161
2022-05-08 12:02z 15.98616 13.88112 4748 104 160
2022-05-08 12:03z 15.96555 13.88773 4761 104 160
2022-05-08 12:03z 15.95161 13.89216 4756 104 160
2022-05-08 12:04z 15.93787 13.89659 4761 104 161
2022-05-08 12:04z 15.93095 13.89878 4754 104 161
2022-05-08 12:05z 15.91029 13.90543 4753 104 161
2022-05-08 12:05z 15.90342 13.90761 4752 103 161
2022-05-08 12:05z 15.88967 13.912 4750 103 161
2022-05-08 12:06z 15.87589 13.91643 4755 103 161
2022-05-08 12:07z 15.85529 13.92302 4754 104 161
2022-05-08 12:07z 15.84835 13.92526 4753 104 161
2022-05-08 12:08z 15.82747 13.9319 4752 105 161
2022-05-08 12:08z 15.81365 13.93634 4751 105 161
2022-05-08 12:08z 15.8067 13.93857 4753 104 161
2022-05-08 12:09z 15.78585 13.94523 4755 104 161
2022-05-08 12:09z 15.77891 13.94744 4751 104 161
2022-05-08 12:10z 15.76504 13.95189 4751 104 161
2022-05-08 12:10z 15.75812 13.9541 4752 104 162
2022-05-08 12:11z 15.74433 13.95852 4752 104 161
2022-05-08 12:12z 15.71685 13.96729 4748 103 162
2022-05-08 12:12z 15.70312 13.97167 4750 103 162
2022-05-08 12:12z 15.69627 13.97385 4751 103 161
2022-05-08 12:13z 15.68253 13.97825 4756 104 161
2022-05-08 12:13z 15.66877 13.98266 4748 103 162
2022-05-08 12:14z 15.65502 13.98703 4750 103 162
2022-05-08 12:15z 15.63452 13.9936 4747 103 162
2022-05-08 12:15z 15.62071 13.99798 4752 104 162
2022-05-08 12:16z 15.60692 14.00239 4753 104 162
2022-05-08 12:16z 15.60005 14.00458 4747 103 162
2022-05-08 12:16z 15.58633 14.00897 4751 103 162
2022-05-08 12:17z 15.57262 14.01333 4755 103 162
2022-05-08 12:17z 15.55901 14.01769 4749 103 162
2022-05-08 12:18z 15.54543 14.02201 4743 102 162
2022-05-08 12:19z 15.52506 14.02852 4750 102 162
2022-05-08 12:19z 15.51142 14.03285 4749 102 162
2022-05-08 12:19z 15.50468 14.03498 4745 103 162
2022-05-08 12:20z 15.4842 14.04154 4745 102 163
2022-05-08 12:20z 15.4774 14.04368 4744 102 162
2022-05-08 12:21z 15.46378 14.04805 4744 103 162
2022-05-08 12:21z 15.45014 14.05241 4752 103 163
2022-05-08 12:22z 15.42964 14.05893 4750 103 163
2022-05-08 12:23z 15.4159 14.0633 4744 103 163
2022-05-08 12:23z 15.40906 14.06548 4747 103 163
2022-05-08 12:23z 15.39546 14.06982 4746 102 163
2022-05-08 12:24z 15.38186 14.07415 4744 102 163
2022-05-08 12:24z 15.36824 14.07846 4750 103 163
2022-05-08 12:25z 15.35466 14.08282 4750 103 162
2022-05-08 12:25z 15.34106 14.08717 4750 102 163
2022-05-08 12:26z 15.32741 14.09145 4748 102 163
2022-05-08 12:26z 15.32062 14.09364 4748 102 163
2022-05-08 12:27z 15.30024 14.10012 4746 102 163
2022-05-08 12:27z 15.29348 14.10227 4742 103 163
2022-05-08 12:28z 15.26621 14.11096 4747 102 163
2022-05-08 12:29z 15.25256 14.1153 4751 103 163
2022-05-08 12:29z 15.23879 14.11966 4743 103 163
2022-05-08 12:29z 15.23194 14.12187 4749 104 163
2022-05-08 12:30z 15.22506 14.12403 4747 103 163
2022-05-08 12:30z 15.20438 14.13061 4741 104 163
2022-05-08 12:31z 15.18377 14.13716 4747 103 163
2022-05-08 12:32z 15.17009 14.14152 4742 103 163
2022-05-08 12:32z 15.16334 14.14365 4749 103 163
2022-05-08 12:32z 15.1496 14.14803 4744 103 163
2022-05-08 12:33z 15.1359 14.15239 4745 103 164
2022-05-08 12:33z 15.1222 14.15673 4741 103 163
2022-05-08 12:34z 15.10849 14.16108 4743 103 164
2022-05-08 12:35z 15.08802 14.16758 4742 103 163
2022-05-08 12:35z 15.07429 14.17194 4744 103 163
2022-05-08 12:36z 15.06061 14.17629 4740 103 163
2022-05-08 12:36z 15.05378 14.17846 4744 103 163
2022-05-08 12:36z 15.04011 14.1828 4744 103 163
2022-05-08 12:37z 15.02649 14.18711 4747 103 164
2022-05-08 12:37z 15.01283 14.19147 4741 102 162
2022-05-08 12:38z 14.99917 14.19577 4742 103 164
2022-05-08 12:39z 14.97871 14.20229 4741 103 164
2022-05-08 12:39z 14.96508 14.20658 4739 103 164
2022-05-08 12:39z 14.9582 14.20878 4744 103 164
2022-05-08 12:40z 14.94448 14.21315 4744 103 165
2022-05-08 12:40z 14.93073 14.21748 4740 103 164
2022-05-08 12:41z 14.91009 14.22404 4739 103 164
2022-05-08 12:41z 14.90319 14.22622 4745 104 164
2022-05-08 12:42z 14.89171 14.22986 4741 104 164
2022-05-08 12:43z 14.87107 14.23639 4740 104 164
2022-05-08 12:43z 14.86419 14.23859 4739 103 164
2022-05-08 12:43z 14.85042 14.24293 4739 104 165
2022-05-08 12:44z 14.83669 14.24728 4742 104 164
2022-05-08 12:45z 14.81593 14.25388 4743 104 165
2022-05-08 12:45z 14.80208 14.25824 4745 104 164
2022-05-08 12:45z 14.79511 14.26046 4743 104 164
2022-05-08 12:46z 14.78121 14.26487 4740 105 164
2022-05-08 12:47z 14.76029 14.27147 4739 105 164
2022-05-08 12:47z 14.75331 14.27369 4740 105 164
2022-05-08 12:47z 14.73933 14.27812 4737 105 164
2022-05-08 12:48z 14.72531 14.28254 4739 105 164
2022-05-08 12:49z 14.70435 14.28919 4737 105 164
2022-05-08 12:49z 14.69736 14.2914 4738 105 164
2022-05-08 12:49z 14.68331 14.29583 4737 105 165
2022-05-08 12:50z 14.66232 14.30248 4737 106 164
2022-05-08 12:51z 14.64825 14.30692 4741 106 164
2022-05-08 12:51z 14.64117 14.30917 4739 106 165
2022-05-08 12:52z 14.61998 14.31585 4737 106 165
2022-05-08 12:52z 14.61294 14.31808 4740 106 165
2022-05-08 12:53z 14.59171 14.32479 4738 106 164
2022-05-08 12:53z 14.58465 14.32703 4739 106 164
2022-05-08 12:53z 14.5705 14.33151 4742 106 164
2022-05-08 12:54z 14.54939 14.33816 4741 107 164
2022-05-08 12:55z 14.53519 14.34265 4739 107 164
2022-05-08 12:55z 14.52808 14.34489 4740 107 164
2022-05-08 12:55z 14.51391 14.34938 4741 106 164
2022-05-08 12:56z 14.49275 14.35604 4742 107 164
2022-05-08 12:57z 14.47854 14.36054 4740 107 164
2022-05-08 12:57z 14.45721 14.36727 4739 107 164
2022-05-08 12:58z 14.44294 14.37177 4747 108 164
2022-05-08 12:59z 14.4214 14.37858 4735 108 164
2022-05-08 12:59z 14.40713 14.38307 4741 108 164
2022-05-08 13:00z 14.3926 14.38765 4741 110 164
2022-05-08 13:00z 14.3853 14.38996 4732 109 164
2022-05-08 13:00z 14.3708 14.39453 4735 108 164
2022-05-08 13:01z 14.35641 14.39905 4723 108 163
2022-05-08 13:01z 14.34187 14.40368 4729 109 163
2022-05-08 13:02z 14.32043 14.4104 4734 107 163
2022-05-08 13:03z 14.30624 14.41489 4742 107 164
2022-05-08 13:03z 14.29912 14.41714 4739 107 164
2022-05-08 13:03z 14.28484 14.42162 4735 107 164
2022-05-08 13:04z 14.27058 14.42612 4734 107 163
2022-05-08 13:04z 14.25629 14.43061 4738 108 164
2022-05-08 13:05z 14.24196 14.43514 4740 108 164
2022-05-08 13:05z 14.22772 14.43962 4734 107 164
2022-05-08 13:06z 14.22057 14.44187 4734 108 163
2022-05-08 13:06z 14.19884 14.4487 4744 111 163
2022-05-08 13:07z 14.17644 14.45577 4739 113 164
2022-05-08 13:07z 14.16894 14.45813 4739 113 164
2022-05-08 13:08z 14.14604 14.46531 4745 116 163
2022-05-08 13:08z 14.13835 14.46773 4739 115 163
2022-05-08 13:09z 14.12298 14.47259 4724 114 165
2022-05-08 13:09z 14.10806 14.47734 4740 112 163
2022-05-08 13:10z 14.093 14.48202 4756 117 164
2022-05-08 13:11z 14.06184 14.49181 4737 116 163
2022-05-08 13:11z 14.04666 14.4966 4713 111 164
2022-05-08 13:12z 14.01761 14.50574 4753 112 163
2022-05-08 13:13z 14.00275 14.51039 4729 110 165
2022-05-08 13:13z 13.98823 14.51495 4736 108 163
2022-05-08 13:14z 13.96671 14.52175 4739 108 163
2022-05-08 13:15z 13.9523 14.52626 4736 109 164
2022-05-08 13:15z 13.93781 14.53079 4735 108 164
2022-05-08 13:15z 13.93064 14.53305 4736 108 164
2022-05-08 13:16z 13.9164 14.53753 4738 108 165
2022-05-08 13:16z 13.90208 14.542 4741 108 164
2022-05-08 13:17z 13.88777 14.54658 4739 107 164
2022-05-08 13:17z 13.87345 14.55098 4742 108 164
2022-05-08 13:18z 13.85193 14.55777 4744 108 164
2022-05-08 13:18z 13.8447 14.56002 4741 108 164
2022-05-08 13:19z 13.82319 14.56679 4741 108 164
2022-05-08 13:20z 13.80879 14.57129 4760 109 165
2022-05-08 13:20z 13.80143 14.57363 4766 112 164
2022-05-08 13:20z 13.78628 14.57834 4755 115 164
2022-05-08 13:21z 13.77079 14.58321 4734 115 163
2022-05-08 13:21z 13.75568 14.58797 4740 112 163
2022-05-08 13:22z 13.73348 14.59492 4734 110 163
2022-05-08 13:22z 13.72623 14.5972 4735 109 163
2022-05-08 13:23z 13.71172 14.60174 4741 109 164
2022-05-08 13:24z 13.69006 14.60853 4743 108 164
2022-05-08 13:24z 13.67561 14.6131 4746 109 165
2022-05-08 13:24z 13.66835 14.61538 4741 109 161
2022-05-08 13:25z 13.65409 14.62087 4746 111 161
2022-05-08 13:25z 13.63964 14.62606 4744 110 162
2022-05-08 13:26z 13.62487 14.63005 4740 109 167
2022-05-08 13:26z 13.61007 14.63412 4746 110 166
2022-05-08 13:27z 13.58813 14.6403 4745 108 166
2022-05-08 13:28z 13.57343 14.64434 4760 111 165
2022-05-08 13:28z 13.55861 14.64842 4751 111 165
2022-05-08 13:28z 13.55106 14.65047 4749 111 166
2022-05-08 13:29z 13.52851 14.6568 4744 112 163
2022-05-08 13:29z 13.52102 14.6589 4744 111 165
2022-05-08 13:30z 13.50623 14.65883 4752 108 193
2022-05-08 13:31z 13.48357 14.65259 4583 122 195
2022-05-08 13:31z 13.46975 14.64878 4377 125 193
2022-05-08 13:31z 13.46128 14.64653 4251 126 194
2022-05-08 13:32z 13.44436 14.64204 4032 126 194
2022-05-08 13:32z 13.42728 14.63757 3821 127 194
2022-05-08 13:33z 13.41016 14.63325 3555 126 193
2022-05-08 13:34z 13.38467 14.62686 3212 125 195
2022-05-08 13:34z 13.37636 14.62457 3147 120 196
2022-05-08 13:35z 13.35537 14.6186 3473 97 191
2022-05-08 13:35z 13.34244 14.61571 3679 96 190
2022-05-08 13:35z 13.33578 14.61419 3720 100 189
2022-05-08 13:36z 13.3213 14.61119 3753 111 191
2022-05-08 13:36z 13.30591 14.6081 3754 115 189
2022-05-08 13:37z 13.29011 14.60496 3731 117 189
2022-05-08 13:37z 13.27307 14.60174 3493 129 190
2022-05-08 13:38z 13.24571 14.59774 2601 133 176
2022-05-08 13:38z 13.23644 14.59969 2000 137 169
2022-05-08 13:39z 13.21921 14.60365 1506 116 164
2022-05-08 13:40z 13.19773 14.61447 1555 111 149
2022-05-08 13:40z 13.19135 14.61838 1746 103 154
2022-05-08 13:41z 13.17123 14.62692 2045 108 164
2022-05-08 13:41z 13.16418 14.62932 2177 104 163
2022-05-08 13:41z 13.15725 14.63161 2276 106 165
2022-05-08 13:42z 13.13605 14.63765 2594 106 167
2022-05-08 13:43z 13.11413 14.64275 2798 113 192
2022-05-08 13:43z 13.10652 14.64161 2913 109 189
2022-05-08 13:44z 13.08465 14.63826 3259 104 189
2022-05-08 13:44z 13.07018 14.63615 3420 110 188
2022-05-08 13:44z 13.06238 14.63504 3448 116 188
2022-05-08 13:45z 13.04594 14.63286 3462 122 188
2022-05-08 13:45z 13.02913 14.63441 3460 124 167
2022-05-08 13:46z 13.00492 14.6446 3464 127 155
2022-05-08 13:47z 12.98879 14.65195 3464 127 158
2022-05-08 13:47z 12.97252 14.65933 3468 128 156
2022-05-08 13:47z 12.96437 14.66311 3470 129 157
2022-05-08 13:48z 12.93989 14.67427 3457 128 157
2022-05-08 13:48z 12.93174 14.67801 3453 127 157
2022-05-08 13:49z 12.91568 14.68536 3458 125 157
2022-05-08 13:49z 12.89954 14.69273 3486 130 158
2022-05-08 13:50z 12.87452 14.7042 3458 132 158
2022-05-08 13:51z 12.85788 14.71176 3445 130 156
2022-05-08 13:51z 12.84977 14.71552 3437 126 157
2022-05-08 13:51z 12.83397 14.72272 3448 123 158
2022-05-08 13:52z 12.81026 14.73354 3463 125 156
2022-05-08 13:52z 12.80238 14.73717 3453 124 156
2022-05-08 13:53z 12.78668 14.74437 3455 123 157
2022-05-08 13:53z 12.77122 14.75138 3461 122 156
2022-05-08 13:54z 12.75563 14.75849 3472 123 158
2022-05-08 13:54z 12.74774 14.76207 3468 124 156
2022-05-08 13:55z 12.732 14.76931 3460 124 157
2022-05-08 13:55z 12.70813 14.78024 3462 126 158
2022-05-08 13:57z 12.66848 14.79832 3455 123 157
2022-05-08 13:57z 12.65287 14.80547 3472 124 158
2022-05-08 13:57z 12.64493 14.80905 3476 125 156
2022-05-08 13:58z 12.62106 14.81996 3487 128 156
2022-05-08 13:59z 12.60429 14.82619 3471 128 161
2022-05-08 13:59z 12.59755 14.83216 3455 129 132
2022-05-08 14:00z 12.58075 14.8535 3465 128 129
2022-05-08 14:00z 12.57518 14.86062 3457 127 134
2022-05-08 14:00z 12.56189 14.87155 3463 116 149
2022-05-08 14:01z 12.5482 14.87887 3408 109 158
2022-05-08 14:01z 12.54122 14.88161 3400 108 161
2022-05-08 14:02z 12.51364 14.89233 3440 102 160
2022-05-08 14:02z 12.50701 14.89497 3453 102 161
2022-05-08 14:03z 12.48657 14.90291 3459 106 161
2022-05-08 14:03z 12.47976 14.90563 3440 104 160
2022-05-08 14:04z 12.45875 14.91384 3464 121 160
2022-05-08 14:04z 12.45072 14.91701 3452 125 160
2022-05-08 14:05z 12.43443 14.92347 3454 127 159
2022-05-08 14:05z 12.41795 14.92987 3373 130 160
2022-05-08 14:06z 12.39136 14.94036 3070 140 160
2022-05-08 14:07z 12.37303 14.94756 2843 142 159
2022-05-08 14:07z 12.36381 14.95121 2721 141 160
2022-05-08 14:08z 12.33661 14.96186 2354 138 159
2022-05-08 14:08z 12.32778 14.96537 2305 134 160
2022-05-08 14:08z 12.3108 14.97197 2267 127 160
2022-05-08 14:09z 12.29431 14.97843 2246 126 159
2022-05-08 14:09z 12.28633 14.98171 2264 125 160
2022-05-08 14:10z 12.25404 14.9943 2271 125 160
2022-05-08 14:10z 12.24576 14.99741 2255 127 159
2022-05-08 14:12z 12.20732 15.01539 2269 110 133
2022-05-08 14:12z 12.19875 15.02555 2031 84 131
2022-05-08 14:12z 12.19517 15.03004 1923 81 130
2022-05-08 14:13z 12.18812 15.03884 1737 79 131
2022-05-08 14:13z 12.18046 15.04602 1630 75 149
2022-05-08 14:14z 12.16598 15.05183 1503 76 175
2022-05-08 14:14z 12.16071 15.05204 1458 75 181
2022-05-08 14:15z 12.15054 15.04906 1336 83 207
2022-05-08 14:16z 12.13819 15.03856 972 61 224
2022-05-08 14:16z 12.13388 15.03431 972 12 218
2022-05-08 14:16z 12.13321 15.03404 972 11 146
2022-05-08 14:17z 12.13297 15.03427 972 1 126
2022-05-08 14:17z 12.13185 15.03477 971 15 232
2022-05-08 14:18z 12.13009 15.03293 971 12 226
2022-05-08 14:18z 12.12967 15.03246 971 14 227
2022-05-08 14:19z 12.12836 15.03168 980 0 128